sensor_id;sensor_type;location;lat;lon;timestamp;P1;durP1;ratioP1;P2;durP2;ratioP2
18647;SDS011;9453;50.294;18.644;2024-01-07T05:03:13;5.50;;;2.73;;
18647;SDS011;9453;50.294;18.644;2024-01-07T05:05:40;6.03;;;2.73;;
18647;SDS011;9453;50.294;18.644;2024-01-07T05:08:07;6.10;;;3.17;;
18647;SDS011;9453;50.294;18.644;2024-01-07T05:10:34;7.43;;;3.57;;
18647;SDS011;9453;50.294;18.644;2024-01-07T05:13:01;7.30;;;3.33;;
18647;SDS011;9453;50.294;18.644;2024-01-07T05:15:30;7.70;;;2.97;;
18647;SDS011;9453;50.294;18.644;2024-01-07T05:17:57;6.73;;;3.43;;
18647;SDS011;9453;50.294;18.644;2024-01-07T05:20:25;9.23;;;3.50;;
18647;SDS011;9453;50.294;18.644;2024-01-07T05:22:52;8.20;;;3.60;;
18647;SDS011;9453;50.294;18.644;2024-01-07T05:25:19;7.63;;;3.23;;
18647;SDS011;9453;50.294;18.644;2024-01-07T05:27:45;10.53;;;3.03;;
18647;SDS011;9453;50.294;18.644;2024-01-07T05:30:13;6.87;;;3.20;;
18647;SDS011;9453;50.294;18.644;2024-01-07T05:32:40;6.23;;;2.70;;
18647;SDS011;9453;50.294;18.644;2024-01-07T05:35:07;9.13;;;3.60;;
18647;SDS011;9453;50.294;18.644;2024-01-07T05:37:35;6.47;;;2.70;;
18647;SDS011;9453;50.294;18.644;2024-01-07T05:40:02;6.93;;;2.97;;
18647;SDS011;9453;50.294;18.644;2024-01-07T05:42:31;6.87;;;3.00;;
18647;SDS011;9453;50.294;18.644;2024-01-07T05:44:58;7.77;;;3.00;;
18647;SDS011;9453;50.294;18.644;2024-01-07T05:47:25;6.47;;;2.87;;
18647;SDS011;9453;50.294;18.644;2024-01-07T05:49:51;7.90;;;2.63;;
18647;SDS011;9453;50.294;18.644;2024-01-07T05:52:18;8.77;;;3.03;;
18647;SDS011;9453;50.294;18.644;2024-01-07T05:54:46;9.57;;;3.47;;
18647;SDS011;9453;50.294;18.644;2024-01-07T05:57:13;7.77;;;3.60;;
18647;SDS011;9453;50.294;18.644;2024-01-07T05:59:40;9.50;;;3.27;;
18647;SDS011;9453;50.294;18.644;2024-01-07T06:02:07;7.20;;;3.37;;
18647;SDS011;9453;50.294;18.644;2024-01-07T06:04:34;7.57;;;3.57;;
18647;SDS011;9453;50.294;18.644;2024-01-07T06:07:01;12.67;;;3.63;;
18647;SDS011;9453;50.294;18.644;2024-01-07T06:09:28;10.93;;;3.90;;
18647;SDS011;9453;50.294;18.644;2024-01-07T06:11:57;9.10;;;3.60;;
18647;SDS011;9453;50.294;18.644;2024-01-07T06:14:23;6.33;;;3.50;;
18647;SDS011;9453;50.294;18.644;2024-01-07T06:16:50;6.53;;;3.20;;
18647;SDS011;9453;50.294;18.644;2024-01-07T06:19:17;7.50;;;3.17;;
18647;SDS011;9453;50.294;18.644;2024-01-07T06:21:45;8.37;;;3.93;;
18647;SDS011;9453;50.294;18.644;2024-01-07T06:24:12;7.10;;;3.57;;
18647;SDS011;9453;50.294;18.644;2024-01-07T06:26:40;8.47;;;3.30;;
18647;SDS011;9453;50.294;18.644;2024-01-07T06:29:08;10.87;;;4.40;;
18647;SDS011;9453;50.294;18.644;2024-01-07T06:31:35;8.57;;;3.30;;
18647;SDS011;9453;50.294;18.644;2024-01-07T06:34:02;7.83;;;3.60;;
18647;SDS011;9453;50.294;18.644;2024-01-07T06:36:29;8.40;;;3.93;;
18647;SDS011;9453;50.294;18.644;2024-01-07T06:38:56;7.07;;;3.60;;
18647;SDS011;9453;50.294;18.644;2024-01-07T06:41:23;10.70;;;3.70;;
18647;SDS011;9453;50.294;18.644;2024-01-07T06:43:50;13.73;;;4.67;;
18647;SDS011;9453;50.294;18.644;2024-01-07T06:46:20;12.63;;;4.30;;
18647;SDS011;9453;50.294;18.644;2024-01-07T06:48:47;11.90;;;4.37;;
18647;SDS011;9453;50.294;18.644;2024-01-07T06:51:14;10.53;;;4.57;;
18647;SDS011;9453;50.294;18.644;2024-01-07T06:53:41;12.57;;;5.40;;
18647;SDS011;9453;50.294;18.644;2024-01-07T06:56:08;12.23;;;4.50;;
18647;SDS011;9453;50.294;18.644;2024-01-07T06:58:34;11.97;;;5.23;;
18647;SDS011;9453;50.294;18.644;2024-01-07T07:01:01;11.30;;;5.03;;
18647;SDS011;9453;50.294;18.644;2024-01-07T07:03:30;10.57;;;4.97;;
18647;SDS011;9453;50.294;18.644;2024-01-07T07:05:57;8.83;;;4.20;;
18647;SDS011;9453;50.294;18.644;2024-01-07T07:08:23;13.27;;;4.47;;
18647;SDS011;9453;50.294;18.644;2024-01-07T07:10:50;9.07;;;4.10;;
18647;SDS011;9453;50.294;18.644;2024-01-07T07:13:17;10.13;;;4.03;;
18647;SDS011;9453;50.294;18.644;2024-01-07T07:15:44;7.33;;;3.77;;
18647;SDS011;9453;50.294;18.644;2024-01-07T07:18:12;9.47;;;3.70;;
18647;SDS011;9453;50.294;18.644;2024-01-07T07:20:40;11.00;;;4.03;;
18647;SDS011;9453;50.294;18.644;2024-01-07T07:23:07;9.43;;;4.43;;
18647;SDS011;9453;50.294;18.644;2024-01-07T07:25:34;9.33;;;3.80;;
18647;SDS011;9453;50.294;18.644;2024-01-07T07:28:01;12.33;;;5.20;;
18647;SDS011;9453;50.294;18.644;2024-01-07T07:30:28;11.47;;;4.60;;
18647;SDS011;9453;50.294;18.644;2024-01-07T07:32:55;11.10;;;4.97;;
18647;SDS011;9453;50.294;18.644;2024-01-07T07:35:22;13.40;;;5.00;;
18647;SDS011;9453;50.294;18.644;2024-01-07T07:37:50;11.30;;;4.97;;
18647;SDS011;9453;50.294;18.644;2024-01-07T07:40:17;9.07;;;4.80;;
18647;SDS011;9453;50.294;18.644;2024-01-07T07:42:44;16.17;;;5.20;;
18647;SDS011;9453;50.294;18.644;2024-01-07T07:45:11;11.67;;;5.30;;
18647;SDS011;9453;50.294;18.644;2024-01-07T07:47:38;14.07;;;4.97;;
18647;SDS011;9453;50.294;18.644;2024-01-07T07:50:07;10.03;;;5.10;;
18647;SDS011;9453;50.294;18.644;2024-01-07T07:52:35;12.03;;;5.50;;
18647;SDS011;9453;50.294;18.644;2024-01-07T07:55:04;12.63;;;5.40;;
18647;SDS011;9453;50.294;18.644;2024-01-07T07:57:32;14.87;;;5.60;;
18647;SDS011;9453;50.294;18.644;2024-01-07T07:59:58;14.90;;;5.33;;
18647;SDS011;9453;50.294;18.644;2024-01-07T08:02:24;14.43;;;5.33;;
18647;SDS011;9453;50.294;18.644;2024-01-07T08:04:51;12.33;;;5.30;;
18647;SDS011;9453;50.294;18.644;2024-01-07T08:07:18;12.57;;;6.07;;
18647;SDS011;9453;50.294;18.644;2024-01-07T08:09:45;13.07;;;5.73;;
18647;SDS011;9453;50.294;18.644;2024-01-07T08:12:14;13.10;;;5.37;;
18647;SDS011;9453;50.294;18.644;2024-01-07T08:14:41;13.90;;;5.33;;
18647;SDS011;9453;50.294;18.644;2024-01-07T08:17:08;16.20;;;5.53;;
18647;SDS011;9453;50.294;18.644;2024-01-07T08:19:35;15.03;;;6.10;;
18647;SDS011;9453;50.294;18.644;2024-01-07T08:22:02;14.23;;;5.47;;
18647;SDS011;9453;50.294;18.644;2024-01-07T08:24:29;14.30;;;5.63;;
18647;SDS011;9453;50.294;18.644;2024-01-07T08:26:56;12.33;;;4.93;;
18647;SDS011;9453;50.294;18.644;2024-01-07T08:29:25;12.70;;;5.70;;
18647;SDS011;9453;50.294;18.644;2024-01-07T08:31:52;10.57;;;4.67;;
18647;SDS011;9453;50.294;18.644;2024-01-07T08:34:19;12.77;;;5.93;;
18647;SDS011;9453;50.294;18.644;2024-01-07T08:36:46;13.57;;;4.67;;
18647;SDS011;9453;50.294;18.644;2024-01-07T08:39:14;13.63;;;5.37;;
18647;SDS011;9453;50.294;18.644;2024-01-07T08:41:41;10.10;;;4.77;;
18647;SDS011;9453;50.294;18.644;2024-01-07T08:44:08;13.43;;;5.20;;
18647;SDS011;9453;50.294;18.644;2024-01-07T08:46:36;12.57;;;4.77;;
18647;SDS011;9453;50.294;18.644;2024-01-07T08:49:03;11.03;;;4.90;;
18647;SDS011;9453;50.294;18.644;2024-01-07T08:51:30;12.27;;;5.07;;
18647;SDS011;9453;50.294;18.644;2024-01-07T08:53:57;12.90;;;5.83;;
18647;SDS011;9453;50.294;18.644;2024-01-07T08:56:24;13.13;;;5.03;;
18647;SDS011;9453;50.294;18.644;2024-01-07T08:58:51;13.70;;;4.23;;
18647;SDS011;9453;50.294;18.644;2024-01-07T09:01:18;12.10;;;5.20;;
18647;SDS011;9453;50.294;18.644;2024-01-07T09:03:47;10.37;;;4.87;;
18647;SDS011;9453;50.294;18.644;2024-01-07T09:06:15;14.73;;;5.63;;
18647;SDS011;9453;50.294;18.644;2024-01-07T09:08:42;16.20;;;6.00;;
18647;SDS011;9453;50.294;18.644;2024-01-07T09:11:09;11.80;;;5.07;;
18647;SDS011;9453;50.294;18.644;2024-01-07T09:13:37;10.30;;;4.93;;
18647;SDS011;9453;50.294;18.644;2024-01-07T09:16:04;15.07;;;5.43;;
18647;SDS011;9453;50.294;18.644;2024-01-07T09:18:34;9.80;;;5.20;;
18647;SDS011;9453;50.294;18.644;2024-01-07T09:21:03;11.00;;;4.47;;
18647;SDS011;9453;50.294;18.644;2024-01-07T09:23:31;10.87;;;5.10;;
18647;SDS011;9453;50.294;18.644;2024-01-07T09:25:58;11.57;;;4.67;;
18647;SDS011;9453;50.294;18.644;2024-01-07T09:28:25;13.00;;;5.03;;
18647;SDS011;9453;50.294;18.644;2024-01-07T09:30:52;10.10;;;4.03;;
18647;SDS011;9453;50.294;18.644;2024-01-07T09:33:19;11.63;;;4.97;;
18647;SDS011;9453;50.294;18.644;2024-01-07T09:35:48;12.83;;;4.50;;
18647;SDS011;9453;50.294;18.644;2024-01-07T09:38:16;9.27;;;4.00;;
18647;SDS011;9453;50.294;18.644;2024-01-07T09:40:43;10.33;;;4.73;;
18647;SDS011;9453;50.294;18.644;2024-01-07T09:43:10;8.67;;;4.37;;
18647;SDS011;9453;50.294;18.644;2024-01-07T09:45:38;9.77;;;4.13;;
18647;SDS011;9453;50.294;18.644;2024-01-07T09:48:07;12.07;;;4.87;;
18647;SDS011;9453;50.294;18.644;2024-01-07T09:50:35;13.10;;;4.63;;
18647;SDS011;9453;50.294;18.644;2024-01-07T09:53:02;12.63;;;4.23;;
18647;SDS011;9453;50.294;18.644;2024-01-07T09:55:33;13.30;;;5.37;;
18647;SDS011;9453;50.294;18.644;2024-01-07T09:58:03;12.23;;;5.00;;
18647;SDS011;9453;50.294;18.644;2024-01-07T10:00:31;12.27;;;5.00;;
18647;SDS011;9453;50.294;18.644;2024-01-07T10:02:59;10.53;;;4.30;;
18647;SDS011;9453;50.294;18.644;2024-01-07T10:05:28;10.87;;;4.80;;
18647;SDS011;9453;50.294;18.644;2024-01-07T10:07:54;15.20;;;5.20;;
18647;SDS011;9453;50.294;18.644;2024-01-07T10:10:22;15.47;;;4.80;;
18647;SDS011;9453;50.294;18.644;2024-01-07T10:12:51;13.80;;;4.80;;
18647;SDS011;9453;50.294;18.644;2024-01-07T10:15:18;12.13;;;5.17;;
18647;SDS011;9453;50.294;18.644;2024-01-07T10:17:45;11.70;;;5.20;;
18647;SDS011;9453;50.294;18.644;2024-01-07T10:20:13;12.13;;;5.90;;
18647;SDS011;9453;50.294;18.644;2024-01-07T10:22:45;11.77;;;4.80;;
18647;SDS011;9453;50.294;18.644;2024-01-07T10:25:16;13.87;;;4.77;;
18647;SDS011;9453;50.294;18.644;2024-01-07T10:27:43;13.23;;;4.47;;
18647;SDS011;9453;50.294;18.644;2024-01-07T10:30:12;10.73;;;4.60;;
18647;SDS011;9453;50.294;18.644;2024-01-07T10:32:41;9.13;;;4.27;;
18647;SDS011;9453;50.294;18.644;2024-01-07T10:35:11;12.33;;;4.67;;
18647;SDS011;9453;50.294;18.644;2024-01-07T10:37:41;11.80;;;4.90;;
18647;SDS011;9453;50.294;18.644;2024-01-07T10:40:08;13.80;;;5.40;;
18647;SDS011;9453;50.294;18.644;2024-01-07T10:42:38;17.50;;;5.67;;
18647;SDS011;9453;50.294;18.644;2024-01-07T10:45:05;13.10;;;4.90;;
18647;SDS011;9453;50.294;18.644;2024-01-07T10:47:34;11.10;;;4.87;;
18647;SDS011;9453;50.294;18.644;2024-01-07T10:50:03;11.67;;;5.00;;
18647;SDS011;9453;50.294;18.644;2024-01-07T10:52:31;17.30;;;5.33;;
18647;SDS011;9453;50.294;18.644;2024-01-07T10:55:02;16.53;;;4.93;;
18647;SDS011;9453;50.294;18.644;2024-01-07T10:57:38;14.67;;;5.27;;
18647;SDS011;9453;50.294;18.644;2024-01-07T11:00:10;14.57;;;5.50;;
18647;SDS011;9453;50.294;18.644;2024-01-07T11:02:46;16.97;;;6.27;;
18647;SDS011;9453;50.294;18.644;2024-01-07T11:05:20;15.27;;;5.63;;
18647;SDS011;9453;50.294;18.644;2024-01-07T11:07:53;16.97;;;6.17;;
18647;SDS011;9453;50.294;18.644;2024-01-07T11:10:28;13.80;;;5.63;;
18647;SDS011;9453;50.294;18.644;2024-01-07T11:13:00;16.00;;;6.10;;
18647;SDS011;9453;50.294;18.644;2024-01-07T11:18:19;18.20;;;6.23;;
18647;SDS011;9453;50.294;18.644;2024-01-07T11:20:47;18.20;;;5.77;;
18647;SDS011;9453;50.294;18.644;2024-01-07T11:23:25;12.40;;;5.60;;
18647;SDS011;9453;50.294;18.644;2024-01-07T11:25:56;11.70;;;4.93;;
18647;SDS011;9453;50.294;18.644;2024-01-07T11:28:42;13.43;;;5.07;;
18647;SDS011;9453;50.294;18.644;2024-01-07T11:31:13;13.57;;;5.57;;
18647;SDS011;9453;50.294;18.644;2024-01-07T11:33:42;11.77;;;5.33;;
18647;SDS011;9453;50.294;18.644;2024-01-07T11:36:11;12.40;;;5.83;;
18647;SDS011;9453;50.294;18.644;2024-01-07T11:38:38;17.23;;;5.40;;
18647;SDS011;9453;50.294;18.644;2024-01-07T11:41:08;13.10;;;5.53;;
18647;SDS011;9453;50.294;18.644;2024-01-07T11:43:37;12.90;;;5.40;;
18647;SDS011;9453;50.294;18.644;2024-01-07T11:46:04;12.37;;;4.43;;
18647;SDS011;9453;50.294;18.644;2024-01-07T11:48:31;14.47;;;6.43;;
18647;SDS011;9453;50.294;18.644;2024-01-07T11:50:59;12.73;;;6.03;;
18647;SDS011;9453;50.294;18.644;2024-01-07T11:53:26;13.70;;;6.00;;
18647;SDS011;9453;50.294;18.644;2024-01-07T11:55:54;14.03;;;6.03;;
18647;SDS011;9453;50.294;18.644;2024-01-07T11:58:21;16.27;;;6.57;;
18647;SDS011;9453;50.294;18.644;2024-01-07T12:00:48;17.40;;;6.30;;
18647;SDS011;9453;50.294;18.644;2024-01-07T12:03:15;14.07;;;5.40;;
18647;SDS011;9453;50.294;18.644;2024-01-07T12:05:42;19.03;;;7.07;;
18647;SDS011;9453;50.294;18.644;2024-01-07T12:08:10;14.23;;;6.03;;
18647;SDS011;9453;50.294;18.644;2024-01-07T12:10:37;15.77;;;6.50;;
18647;SDS011;9453;50.294;18.644;2024-01-07T12:13:04;16.57;;;5.73;;
18647;SDS011;9453;50.294;18.644;2024-01-07T12:15:36;19.27;;;6.77;;
18647;SDS011;9453;50.294;18.644;2024-01-07T12:18:04;16.27;;;6.97;;
18647;SDS011;9453;50.294;18.644;2024-01-07T12:20:31;14.60;;;6.17;;
18647;SDS011;9453;50.294;18.644;2024-01-07T12:23:04;16.87;;;7.03;;
18647;SDS011;9453;50.294;18.644;2024-01-07T12:25:34;20.53;;;7.20;;
18647;SDS011;9453;50.294;18.644;2024-01-07T12:28:01;17.37;;;6.70;;
18647;SDS011;9453;50.294;18.644;2024-01-07T12:30:29;17.30;;;7.00;;
18647;SDS011;9453;50.294;18.644;2024-01-07T12:32:56;18.00;;;7.13;;
18647;SDS011;9453;50.294;18.644;2024-01-07T12:35:25;14.83;;;6.53;;
18647;SDS011;9453;50.294;18.644;2024-01-07T12:37:52;18.83;;;7.77;;
18647;SDS011;9453;50.294;18.644;2024-01-07T12:40:21;17.40;;;7.33;;
18647;SDS011;9453;50.294;18.644;2024-01-07T12:42:51;21.23;;;8.57;;
18647;SDS011;9453;50.294;18.644;2024-01-07T12:45:18;19.63;;;8.33;;
18647;SDS011;9453;50.294;18.644;2024-01-07T12:47:45;16.67;;;7.80;;
18647;SDS011;9453;50.294;18.644;2024-01-07T12:50:12;18.83;;;8.03;;
18647;SDS011;9453;50.294;18.644;2024-01-07T12:52:40;17.43;;;8.60;;
18647;SDS011;9453;50.294;18.644;2024-01-07T12:55:07;23.07;;;8.00;;
18647;SDS011;9453;50.294;18.644;2024-01-07T12:57:34;17.57;;;7.70;;
18647;SDS011;9453;50.294;18.644;2024-01-07T13:00:03;22.50;;;8.07;;
18647;SDS011;9453;50.294;18.644;2024-01-07T13:02:32;23.27;;;7.50;;
18647;SDS011;9453;50.294;18.644;2024-01-07T13:04:59;20.23;;;7.70;;
18647;SDS011;9453;50.294;18.644;2024-01-07T13:07:28;19.47;;;8.17;;
18647;SDS011;9453;50.294;18.644;2024-01-07T13:09:54;21.43;;;8.07;;
18647;SDS011;9453;50.294;18.644;2024-01-07T13:12:21;17.20;;;7.93;;
18647;SDS011;9453;50.294;18.644;2024-01-07T13:14:48;19.43;;;8.57;;
18647;SDS011;9453;50.294;18.644;2024-01-07T13:17:17;20.43;;;8.77;;
18647;SDS011;9453;50.294;18.644;2024-01-07T13:19:44;20.30;;;9.13;;
18647;SDS011;9453;50.294;18.644;2024-01-07T13:22:10;20.53;;;8.63;;
18647;SDS011;9453;50.294;18.644;2024-01-07T13:24:38;16.27;;;7.93;;
18647;SDS011;9453;50.294;18.644;2024-01-07T13:27:06;21.57;;;9.20;;
18647;SDS011;9453;50.294;18.644;2024-01-07T13:29:33;19.27;;;8.20;;
18647;SDS011;9453;50.294;18.644;2024-01-07T13:32:00;24.83;;;9.93;;
18647;SDS011;9453;50.294;18.644;2024-01-07T13:34:28;25.07;;;10.77;;
18647;SDS011;9453;50.294;18.644;2024-01-07T13:36:55;22.57;;;10.13;;
18647;SDS011;9453;50.294;18.644;2024-01-07T13:39:22;26.57;;;10.80;;
18647;SDS011;9453;50.294;18.644;2024-01-07T13:41:49;22.50;;;9.13;;
18647;SDS011;9453;50.294;18.644;2024-01-07T13:44:16;23.40;;;10.23;;
18647;SDS011;9453;50.294;18.644;2024-01-07T13:46:44;23.57;;;8.57;;
18647;SDS011;9453;50.294;18.644;2024-01-07T13:49:11;26.37;;;9.47;;
18647;SDS011;9453;50.294;18.644;2024-01-07T13:51:39;22.83;;;9.83;;
18647;SDS011;9453;50.294;18.644;2024-01-07T13:54:06;26.57;;;9.03;;
18647;SDS011;9453;50.294;18.644;2024-01-07T13:56:35;19.53;;;9.03;;
18647;SDS011;9453;50.294;18.644;2024-01-07T13:59:03;22.03;;;8.30;;
18647;SDS011;9453;50.294;18.644;2024-01-07T14:01:30;22.17;;;8.43;;
18647;SDS011;9453;50.294;18.644;2024-01-07T14:03:57;23.90;;;10.27;;
18647;SDS011;9453;50.294;18.644;2024-01-07T14:06:24;23.20;;;9.83;;
18647;SDS011;9453;50.294;18.644;2024-01-07T14:08:53;21.17;;;9.43;;
18647;SDS011;9453;50.294;18.644;2024-01-07T14:11:20;22.23;;;9.93;;
18647;SDS011;9453;50.294;18.644;2024-01-07T14:13:47;24.47;;;9.03;;
18647;SDS011;9453;50.294;18.644;2024-01-07T14:16:14;23.37;;;9.80;;
18647;SDS011;9453;50.294;18.644;2024-01-07T14:18:41;21.53;;;9.30;;
18647;SDS011;9453;50.294;18.644;2024-01-07T14:21:08;18.17;;;9.27;;
18647;SDS011;9453;50.294;18.644;2024-01-07T14:23:35;18.23;;;8.37;;
18647;SDS011;9453;50.294;18.644;2024-01-07T14:26:04;23.33;;;9.80;;
18647;SDS011;9453;50.294;18.644;2024-01-07T14:28:31;22.27;;;9.20;;
18647;SDS011;9453;50.294;18.644;2024-01-07T14:30:58;20.70;;;9.37;;
18647;SDS011;9453;50.294;18.644;2024-01-07T14:33:24;20.40;;;8.67;;
18647;SDS011;9453;50.294;18.644;2024-01-07T14:35:51;19.53;;;8.33;;
18647;SDS011;9453;50.294;18.644;2024-01-07T14:38:18;21.47;;;8.57;;
18647;SDS011;9453;50.294;18.644;2024-01-07T14:40:45;20.47;;;8.73;;
18647;SDS011;9453;50.294;18.644;2024-01-07T14:43:14;22.10;;;8.77;;
18647;SDS011;9453;50.294;18.644;2024-01-07T14:45:41;20.20;;;8.33;;
18647;SDS011;9453;50.294;18.644;2024-01-07T14:48:08;27.47;;;10.40;;
18647;SDS011;9453;50.294;18.644;2024-01-07T14:50:35;24.57;;;10.13;;
18647;SDS011;9453;50.294;18.644;2024-01-07T14:53:02;21.57;;;10.47;;
18647;SDS011;9453;50.294;18.644;2024-01-07T14:55:29;20.50;;;9.60;;
18647;SDS011;9453;50.294;18.644;2024-01-07T14:57:56;20.97;;;9.13;;
18647;SDS011;9453;50.294;18.644;2024-01-07T15:00:24;19.53;;;8.93;;
18647;SDS011;9453;50.294;18.644;2024-01-07T15:02:51;20.87;;;9.20;;
18647;SDS011;9453;50.294;18.644;2024-01-07T15:05:18;26.20;;;9.37;;
18647;SDS011;9453;50.294;18.644;2024-01-07T15:07:45;24.23;;;10.57;;
18647;SDS011;9453;50.294;18.644;2024-01-07T15:10:14;20.13;;;9.97;;
18647;SDS011;9453;50.294;18.644;2024-01-07T15:12:48;20.57;;;10.37;;
18647;SDS011;9453;50.294;18.644;2024-01-07T15:15:19;19.13;;;9.77;;
18647;SDS011;9453;50.294;18.644;2024-01-07T15:17:50;21.30;;;10.27;;
18647;SDS011;9453;50.294;18.644;2024-01-07T15:20:17;20.50;;;9.33;;
18647;SDS011;9453;50.294;18.644;2024-01-07T15:22:44;28.63;;;10.13;;
18647;SDS011;9453;50.294;18.644;2024-01-07T15:25:11;19.97;;;9.50;;
18647;SDS011;9453;50.294;18.644;2024-01-07T15:27:38;22.43;;;10.23;;
18647;SDS011;9453;50.294;18.644;2024-01-07T15:30:06;24.80;;;9.83;;
18647;SDS011;9453;50.294;18.644;2024-01-07T15:32:33;26.77;;;10.90;;
18647;SDS011;9453;50.294;18.644;2024-01-07T15:35:02;25.50;;;10.97;;
18647;SDS011;9453;50.294;18.644;2024-01-07T15:37:30;23.00;;;10.40;;
18647;SDS011;9453;50.294;18.644;2024-01-07T15:39:57;23.90;;;10.07;;
18647;SDS011;9453;50.294;18.644;2024-01-07T15:42:24;23.63;;;9.23;;
18647;SDS011;9453;50.294;18.644;2024-01-07T15:44:51;25.67;;;10.83;;
18647;SDS011;9453;50.294;18.644;2024-01-07T15:47:18;29.80;;;11.00;;
18647;SDS011;9453;50.294;18.644;2024-01-07T15:49:45;21.57;;;10.27;;
18647;SDS011;9453;50.294;18.644;2024-01-07T15:52:13;22.83;;;10.60;;
18647;SDS011;9453;50.294;18.644;2024-01-07T15:54:40;21.73;;;9.33;;
18647;SDS011;9453;50.294;18.644;2024-01-07T15:57:07;29.70;;;12.07;;
18647;SDS011;9453;50.294;18.644;2024-01-07T15:59:34;33.67;;;11.03;;
18647;SDS011;9453;50.294;18.644;2024-01-07T16:02:01;27.93;;;10.77;;
18647;SDS011;9453;50.294;18.644;2024-01-07T16:04:28;22.83;;;10.10;;
18647;SDS011;9453;50.294;18.644;2024-01-07T16:06:55;28.27;;;10.93;;
18647;SDS011;9453;50.294;18.644;2024-01-07T16:09:23;24.23;;;9.67;;
18647;SDS011;9453;50.294;18.644;2024-01-07T16:11:50;27.60;;;10.63;;
18647;SDS011;9453;50.294;18.644;2024-01-07T16:14:17;20.73;;;10.03;;
18647;SDS011;9453;50.294;18.644;2024-01-07T16:16:49;29.83;;;10.77;;
18647;SDS011;9453;50.294;18.644;2024-01-07T16:19:16;24.87;;;11.00;;
18647;SDS011;9453;50.294;18.644;2024-01-07T16:21:43;25.30;;;11.00;;
18647;SDS011;9453;50.294;18.644;2024-01-07T16:24:10;25.27;;;12.57;;
18647;SDS011;9453;50.294;18.644;2024-01-07T16:26:41;30.57;;;12.60;;
18647;SDS011;9453;50.294;18.644;2024-01-07T16:29:09;24.87;;;11.47;;
18647;SDS011;9453;50.294;18.644;2024-01-07T16:31:38;24.17;;;11.33;;
18647;SDS011;9453;50.294;18.644;2024-01-07T16:34:05;25.77;;;10.63;;
18647;SDS011;9453;50.294;18.644;2024-01-07T16:36:33;28.00;;;10.83;;
18647;SDS011;9453;50.294;18.644;2024-01-07T16:39:06;23.00;;;10.57;;
18647;SDS011;9453;50.294;18.644;2024-01-07T16:41:33;27.80;;;11.63;;
18647;SDS011;9453;50.294;18.644;2024-01-07T16:44:02;25.23;;;10.77;;
18647;SDS011;9453;50.294;18.644;2024-01-07T16:46:33;31.40;;;11.40;;
18647;SDS011;9453;50.294;18.644;2024-01-07T16:49:00;30.03;;;11.30;;
18647;SDS011;9453;50.294;18.644;2024-01-07T16:51:26;31.87;;;12.63;;
18647;SDS011;9453;50.294;18.644;2024-01-07T16:53:54;27.20;;;11.47;;
18647;SDS011;9453;50.294;18.644;2024-01-07T16:56:21;30.03;;;11.80;;
18647;SDS011;9453;50.294;18.644;2024-01-07T16:58:48;30.27;;;12.07;;
18647;SDS011;9453;50.294;18.644;2024-01-07T17:01:16;33.07;;;11.30;;
18647;SDS011;9453;50.294;18.644;2024-01-07T17:03:43;35.67;;;12.77;;
18647;SDS011;9453;50.294;18.644;2024-01-07T17:06:10;26.97;;;12.43;;
18647;SDS011;9453;50.294;18.644;2024-01-07T17:08:37;29.57;;;10.90;;
18647;SDS011;9453;50.294;18.644;2024-01-07T17:11:04;24.13;;;10.53;;
18647;SDS011;9453;50.294;18.644;2024-01-07T17:13:31;32.40;;;11.97;;
18647;SDS011;9453;50.294;18.644;2024-01-07T17:15:59;29.70;;;11.90;;
18647;SDS011;9453;50.294;18.644;2024-01-07T17:18:27;28.27;;;12.07;;
18647;SDS011;9453;50.294;18.644;2024-01-07T17:20:54;30.77;;;11.97;;
18647;SDS011;9453;50.294;18.644;2024-01-07T17:23:22;26.50;;;11.90;;
18647;SDS011;9453;50.294;18.644;2024-01-07T17:25:49;23.07;;;10.60;;
18647;SDS011;9453;50.294;18.644;2024-01-07T17:28:16;28.77;;;11.83;;
18647;SDS011;9453;50.294;18.644;2024-01-07T17:30:43;30.80;;;12.67;;
18647;SDS011;9453;50.294;18.644;2024-01-07T17:33:10;27.43;;;11.60;;
18647;SDS011;9453;50.294;18.644;2024-01-07T17:35:39;34.87;;;12.77;;
18647;SDS011;9453;50.294;18.644;2024-01-07T17:38:06;29.13;;;11.63;;
18647;SDS011;9453;50.294;18.644;2024-01-07T17:40:33;33.33;;;12.67;;
18647;SDS011;9453;50.294;18.644;2024-01-07T17:43:00;28.53;;;11.83;;
18647;SDS011;9453;50.294;18.644;2024-01-07T17:45:28;28.50;;;12.13;;
18647;SDS011;9453;50.294;18.644;2024-01-07T17:47:55;24.63;;;11.53;;
18647;SDS011;9453;50.294;18.644;2024-01-07T17:50:23;33.30;;;12.60;;
18647;SDS011;9453;50.294;18.644;2024-01-07T17:52:51;26.90;;;11.83;;
18647;SDS011;9453;50.294;18.644;2024-01-07T17:55:18;26.57;;;12.23;;
18647;SDS011;9453;50.294;18.644;2024-01-07T17:57:46;31.53;;;12.33;;
18647;SDS011;9453;50.294;18.644;2024-01-07T18:00:13;28.67;;;11.93;;
18647;SDS011;9453;50.294;18.644;2024-01-07T18:02:42;29.63;;;11.53;;
18647;SDS011;9453;50.294;18.644;2024-01-07T18:05:09;27.90;;;11.73;;
18647;SDS011;9453;50.294;18.644;2024-01-07T18:07:36;32.27;;;12.33;;
18647;SDS011;9453;50.294;18.644;2024-01-07T18:10:05;27.03;;;12.20;;
18647;SDS011;9453;50.294;18.644;2024-01-07T18:12:35;25.77;;;11.83;;
18647;SDS011;9453;50.294;18.644;2024-01-07T18:15:03;30.77;;;11.37;;
18647;SDS011;9453;50.294;18.644;2024-01-07T18:17:31;23.67;;;10.77;;
18647;SDS011;9453;50.294;18.644;2024-01-07T18:20:01;25.97;;;11.30;;
18647;SDS011;9453;50.294;18.644;2024-01-07T18:22:28;31.87;;;12.20;;
18647;SDS011;9453;50.294;18.644;2024-01-07T18:24:55;33.97;;;11.60;;
18647;SDS011;9453;50.294;18.644;2024-01-07T18:27:24;29.77;;;12.37;;
18647;SDS011;9453;50.294;18.644;2024-01-07T18:29:51;27.20;;;11.17;;
18647;SDS011;9453;50.294;18.644;2024-01-07T18:32:20;25.20;;;11.27;;
18647;SDS011;9453;50.294;18.644;2024-01-07T18:34:47;30.27;;;12.10;;
18647;SDS011;9453;50.294;18.644;2024-01-07T18:37:15;30.07;;;12.23;;
18647;SDS011;9453;50.294;18.644;2024-01-07T18:39:45;27.47;;;11.90;;
18647;SDS011;9453;50.294;18.644;2024-01-07T18:42:13;33.63;;;12.17;;
18647;SDS011;9453;50.294;18.644;2024-01-07T18:44:42;27.80;;;12.20;;
18647;SDS011;9453;50.294;18.644;2024-01-07T18:47:10;29.70;;;11.83;;
18647;SDS011;9453;50.294;18.644;2024-01-07T18:49:38;26.17;;;10.70;;
18647;SDS011;9453;50.294;18.644;2024-01-07T18:52:06;29.37;;;11.60;;
18647;SDS011;9453;50.294;18.644;2024-01-07T18:54:38;27.23;;;11.43;;
18647;SDS011;9453;50.294;18.644;2024-01-07T18:57:06;29.83;;;11.23;;
18647;SDS011;9453;50.294;18.644;2024-01-07T18:59:33;28.27;;;12.03;;
18647;SDS011;9453;50.294;18.644;2024-01-07T19:02:03;32.30;;;11.70;;
18647;SDS011;9453;50.294;18.644;2024-01-07T19:04:30;27.77;;;12.23;;
18647;SDS011;9453;50.294;18.644;2024-01-07T19:06:57;28.27;;;11.53;;
18647;SDS011;9453;50.294;18.644;2024-01-07T19:09:25;30.27;;;11.97;;
18647;SDS011;9453;50.294;18.644;2024-01-07T19:11:52;26.43;;;11.10;;
18647;SDS011;9453;50.294;18.644;2024-01-07T19:14:20;25.30;;;12.13;;
18647;SDS011;9453;50.294;18.644;2024-01-07T19:16:47;25.37;;;11.40;;
18647;SDS011;9453;50.294;18.644;2024-01-07T19:19:16;24.60;;;10.43;;
18647;SDS011;9453;50.294;18.644;2024-01-07T19:21:43;21.60;;;10.10;;
18647;SDS011;9453;50.294;18.644;2024-01-07T19:24:10;24.50;;;10.90;;
18647;SDS011;9453;50.294;18.644;2024-01-07T19:26:37;29.13;;;11.43;;
18647;SDS011;9453;50.294;18.644;2024-01-07T19:29:07;29.83;;;10.70;;
18647;SDS011;9453;50.294;18.644;2024-01-07T19:31:34;31.60;;;12.17;;
18647;SDS011;9453;50.294;18.644;2024-01-07T19:34:04;30.93;;;11.43;;
18647;SDS011;9453;50.294;18.644;2024-01-07T19:36:33;24.73;;;11.27;;
18647;SDS011;9453;50.294;18.644;2024-01-07T19:39:05;30.63;;;13.17;;
18647;SDS011;9453;50.294;18.644;2024-01-07T19:41:32;27.93;;;11.63;;